X  SluitMETAR luchtvaart weer gegevens      EHAM Amsterdam Schiphol

Temperatuur

6°C Temperatuur

3°C Dauwpunt

81% Vochtigheid



Wind

24 KM/U

15 MPH

 7 M/S

13 KTS



190°
Het Zuiden
Huidig weer

Helder Helder
Luchtdruk 1002.92 (hPa) - 29.62 (in)
Zicht 6.2 (mi) - 10 (km)
Vliegveld
Vliegveld code EHAM

Locatie Amsterdam Schiphol 2 (km)

Metar:
EHAM 152025Z 19013KT CAVOK 06/03 Q1003 NOSIG

Tijd: 15-12-2019 21:25